| Date | Time | Temp. (oF) | Dew Point (oF) | Rel. Hum. (%) | Press. (in.) | Wind Dir. | Wind Speed (mph) | Hourly Rainfall (in.) |
|
|---|---|---|---|---|---|---|---|---|---|
| 1 | 11/11 | 00:00 | 41 | 28 | 61 | 30.04 | S | 5 | 0.00 |
| 2 | 11/10 | 23:00 | 41 | 28 | 61 | 30.04 | NW | 6 | 0.00 |
| 3 | 11/10 | 22:00 | 43 | 30 | 61 | 30.04 | W | 12 | 0.00 |
| 4 | 11/10 | 21:00 | 42 | 30 | 63 | 30.02 | WNW | 5 | 0.00 |
| 5 | 11/10 | 20:00 | 42 | 29 | 62 | 30.01 | WNW | 10 | 0.00 |
| 6 | 11/10 | 19:00 | 44 | 30 | 60 | 30.00 | NW | 5 | 0.00 |
| 7 | 11/10 | 18:00 | 45 | 29 | 55 | 29.98 | NW | 5 | 0.00 |
| 8 | 11/10 | 17:00 | 46 | 30 | 55 | 29.94 | WNW | 11 | 0.00 |
| 9 | 11/10 | 16:00 | 48 | 31 | 52 | 29.91 | NW | 12 | 0.00 |
| 10 | 11/10 | 15:00 | 50 | 32 | 51 | 29.88 | WNW | 14 | 0.00 |
| 11 | 11/10 | 14:00 | 51 | 33 | 51 | 29.86 | NW | 13 | 0.00 |
| 12 | 11/10 | 13:00 | 50 | 31 | 49 | 29.85 | NNW | 13 | 0.00 |
| 13 | 11/10 | 12:00 | 49 | 30 | 49 | 29.85 | WNW | 13 | 0.00 |
| 14 | 11/10 | 11:00 | 50 | 34 | 55 | 29.85 | NNW | 9 | 0.00 |
| 15 | 11/10 | 10:00 | 50 | 34 | 56 | 29.83 | W | 9 | 0.00 |
| 16 | 11/10 | 09:00 | 49 | 35 | 60 | 29.81 | NW | 12 | 0.00 |
| 17 | 11/10 | 08:00 | 50 | 35 | 57 | 29.79 | W | 11 | 0.00 |
| 18 | 11/10 | 07:00 | 50 | 34 | 56 | 29.78 | W | 11 | 0.00 |
| 19 | 11/10 | 06:00 | 52 | 35 | 54 | 29.76 | WNW | 13 | 0.00 |
| 20 | 11/10 | 05:00 | 53 | 40 | 62 | 29.74 | WNW | 8 | 0.00 |
| 21 | 11/10 | 04:00 | 54 | 41 | 63 | 29.70 | NW | 6 | 0.00 |
| 22 | 11/10 | 03:00 | 56 | 45 | 67 | 29.69 | NW | 7 | 0.00 |
| 23 | 11/10 | 02:00 | 59 | 55 | 88 | 29.65 | W | 1 | 0.00 |
| 24 | miss | miss | miss | miss | miss | miss | miss | miss | |
| 25 | 11/10 | 01:29 | 59 | 55 | 89 | 29.63 | SSW | 4 | 0.00 |
| 26 | miss | miss | miss | miss | miss | miss | miss | miss | |
| 27 | 11/10 | 01:29 | 59 | 55 | 89 | 29.63 | SSW | 4 | 0.00 |
| 28 | miss | miss | miss | miss | miss | miss | miss | miss | |
| 29 | 11/10 | 01:29 | 59 | 55 | 89 | 29.63 | SSW | 4 | 0.00 |
| 30 | miss | miss | miss | miss | miss | miss | miss | miss | |
| 31 | 11/10 | 01:29 | 59 | 55 | 89 | 29.63 | SSW | 4 | 0.00 |
| 32 | miss | miss | miss | miss | miss | miss | miss | miss | |
| 33 | 11/10 | 01:29 | 59 | 55 | 89 | 29.63 | SSW | 4 | 0.00 |
| 34 | miss | miss | miss | miss | miss | miss | miss | miss | |
| 35 | 11/10 | 01:29 | 59 | 55 | 89 | 29.63 | SSW | 4 | 0.00 |
| 36 | miss | miss | miss | miss | miss | miss | miss | miss | |
| 37 | 11/10 | 01:29 | 59 | 55 | 89 | 29.63 | SSW | 4 | 0.00 |
| 38 | miss | miss | miss | miss | miss | miss | miss | miss | |
| 39 | 11/10 | 01:29 | 59 | 55 | 89 | 29.63 | SSW | 4 | 0.00 |
| 40 | miss | miss | miss | miss | miss | miss | miss | miss | |
| 41 | 11/10 | 01:29 | 59 | 55 | 89 | 29.63 | SSW | 4 | 0.00 |
| 42 | miss | miss | miss | miss | miss | miss | miss | miss | |
| 43 | 11/10 | 01:29 | 59 | 55 | 89 | 29.63 | SSW | 4 | 0.00 |
| 44 | miss | miss | miss | miss | miss | miss | miss | miss | |
| 45 | 11/10 | 01:29 | 59 | 55 | 89 | 29.63 | SSW | 4 | 0.00 |
| 46 | miss | miss | miss | miss | miss | miss | miss | miss | |
| 47 | 11/10 | 01:29 | 59 | 55 | 89 | 29.63 | SSW | 4 | 0.00 |
| 48 | 11/10 | 01:00 | 59 | 58 | 99 | 29.63 | SSW | 4 | 0.00 |
| 49 | 11/10 | 00:00 | 61 | 60 | 97 | 29.65 | SW | 2 | 0.00 |
| 50 | 11/09 | 23:00 | 64 | 61 | 91 | 29.61 | SW | 3 | 0.00 |
| 51 | 11/09 | 22:00 | 63 | 60 | 93 | 29.62 | S | 5 | 0.00 |
| 52 | 11/09 | 21:00 | 63 | 60 | 93 | 29.65 | SW | 4 | 0.00 |
| 53 | 11/09 | 20:00 | 62 | 59 | 93 | 29.68 | SSW | 5 | 0.00 |
| 54 | 11/09 | 19:00 | 62 | 60 | 94 | 29.73 | SSW | 4 | 0.00 |
| 55 | 11/09 | 18:00 | 61 | 59 | 94 | 29.76 | S | 8 | 0.00 |
| 56 | 11/09 | 17:00 | 61 | 58 | 91 | 29.78 | S | 7 | 0.00 |
| 57 | 11/09 | 16:00 | 62 | 57 | 86 | 29.78 | S | 10 | 0.00 |
| 58 | 11/09 | 15:00 | 62 | 56 | 83 | 29.82 | SSE | 4 | 0.00 |
| 59 | 11/09 | 14:00 | 61 | 56 | 86 | 29.87 | S | 7 | 0.00 |
| 60 | 11/09 | 13:00 | 59 | 54 | 84 | 29.92 | SE | 3 | 0.00 |
| 61 | 11/09 | 12:00 | 58 | 52 | 83 | 29.97 | SSE | 6 | 0.00 |
| 62 | 11/09 | 11:00 | 56 | 50 | 81 | 30.03 | E | 4 | 0.00 |
| 63 | 11/09 | 10:00 | 54 | 47 | 80 | 30.08 | E | 2 | 0.00 |
| 64 | 11/09 | 09:00 | 53 | 46 | 79 | 30.09 | NE | 2 | 0.00 |
| 65 | 11/09 | 08:00 | 52 | 45 | 78 | 30.10 | NNE | 5 | 0.00 |
| 66 | 11/09 | 07:00 | 52 | 44 | 76 | 30.11 | E | 7 | 0.00 |
| 67 | 11/09 | 06:00 | 52 | 44 | 75 | 30.11 | ENE | 4 | 0.00 |
| 68 | 11/09 | 05:00 | 52 | 43 | 73 | 30.13 | ENE | 4 | 0.00 |
| 69 | 11/09 | 04:00 | 53 | 44 | 72 | 30.13 | NE | 3 | 0.00 |
| 70 | 11/09 | 03:00 | 54 | 45 | 72 | 30.13 | SSE | 4 | 0.00 |
| 71 | 11/09 | 02:00 | 55 | 46 | 73 | 30.14 | NE | 8 | 0.00 |
| 72 | 11/09 | 01:00 | 55 | 46 | 74 | 30.14 | NE | 6 | 0.00 |
| 73 | 11/09 | 00:00 | 55 | 48 | 79 | 30.14 | NE | 1 | 0.00 |